• Join FlightAware (Why Join?)
  • Login
  • US Flag 
09:01PM EDT


 

Airport Tracker/Info


-or-


 

Live Flight TrackerFlight Track Log ✈ FWL733 ✈ 28-Aug-2013 ✈ KMIA - SBEG / MAO

Flight Track Log - Related Links

Times and Time Zones

All times are in EDT time to prevent confusion due to time zone crossing. See the FWL733 flight status page for this flight to view local times or setup timezone preferences in your user account.

Time Position Orientation Groundspeed Altitude Reporting Facility
EDT Latitude Longitude Course Direction KTS MPH feet Rate Location/Type
11:49PM 25.8006 -80.2583 109° East 203 234 800  Level Miami Center
11:50PM 25.7850 -80.2094 109° East 203 234 2,200 2,040 Climbing Miami Center
11:51PM 25.7508 -80.1556 125° Southeast 215 247 4,500 2,460 Climbing Miami Center
11:52PM 25.6800 -80.1375 167° South 220 253 7,100 2,700 Climbing Miami Center
11:53PM 25.6097 -80.1103 161° South 248 285 9,900 2,040 Climbing Miami Center
11:54PM 25.5289 -80.0758 159° South 279 321 11,300 1,560 Climbing Miami Center
11:55PM 25.4336 -80.0386 161° South 325 374 13,100 2,160 Climbing Miami Center
11:56PM 25.3322 -79.9994 161° South 363 418 15,600 2,340 Climbing Miami Center
11:57PM 25.2372 -79.9417 151° Southeast 384 442 17,900 2,160 Climbing Miami Center
11:58PM 25.1406 -79.8728 147° Southeast 397 457 20,000 1,920 Climbing Miami Center
11:59PM 25.0417 -79.7969 145° Southeast 415 478 21,800 1,740 Climbing Miami Center
12:00AM 24.9367 -79.7256 148° Southeast 434 499 23,500 1,620 Climbing Miami Center
12:01AM 24.8294 -79.6522 148° Southeast 446 513 25,100 1,500 Climbing Miami Center
12:02AM 24.7200 -79.5719 146° Southeast 458 527 26,500 1,500 Climbing Miami Center
12:03AM 24.6086 -79.4964 148° Southeast 470 541 28,100 1,560 Climbing Miami Center
12:04AM 24.4994 -79.4142 146° Southeast 475 547 29,700 1,500 Climbing Miami Center
12:05AM 24.3856 -79.3389 149° Southeast 475 547 31,200 1,380 Climbing Miami Center
12:06AM 24.2764 -79.2569 146° Southeast 475 547 32,500 840 Climbing Miami Center
12:07AM 24.1833 -79.1961 149° Southeast 468 539 33,000 240 Climbing Miami Center
12:08AM 24.0653 -79.1142 148° Southeast 480 552 33,000  Level Miami Center
12:10AM 23.8807 -78.9690 143° Southeast  Level FlightAware Approximate
12:17AM 23.1950 -78.4098 143° Southeast  Level FlightAware Approximate
12:18AM 23.0969 -78.3305 143° Southeast  Level FlightAware Approximate
12:19AM 22.9987 -78.2512 143° Southeast  Level FlightAware Approximate
12:20AM 22.9004 -78.1721 143° Southeast  Level FlightAware Approximate
12:21AM 22.8022 -78.0931 143° Southeast  Level FlightAware Approximate
12:22AM 22.7039 -78.0142 143° Southeast  Level FlightAware Approximate
12:23AM 22.6055 -77.9354 144° Southeast  Level FlightAware Approximate
12:24AM 22.5071 -77.8567 144° Southeast  Level FlightAware Approximate
12:25AM 22.4087 -77.7782 144° Southeast  Level FlightAware Approximate
12:26AM 22.3102 -77.6997 144° Southeast  Level FlightAware Approximate
12:27AM 22.2117 -77.6214 144° Southeast  Level FlightAware Approximate
12:28AM 22.1132 -77.5431 144° Southeast  Level FlightAware Approximate
12:29AM 22.0146 -77.4650 144° Southeast  Level FlightAware Approximate
12:30AM 21.9152 -77.3881 144° Southeast  Level FlightAware Approximate
12:31AM 21.8159 -77.3113 144° Southeast  Level FlightAware Approximate
12:32AM 21.7165 -77.2346 144° Southeast  Level FlightAware Approximate
12:33AM 21.6174 -77.1573 143° Southeast  Level FlightAware Approximate
12:34AM 21.5192 -77.0790 143° Southeast  Level FlightAware Approximate
12:35AM 21.4209 -77.0008 143° Southeast  Level FlightAware Approximate
12:36AM 21.3226 -76.9226 143° Southeast  Level FlightAware Approximate
12:37AM 21.2243 -76.8446 144° Southeast  Level FlightAware Approximate
12:38AM 21.1259 -76.7667 144° Southeast  Level FlightAware Approximate
12:39AM 21.0274 -76.6889 144° Southeast  Level FlightAware Approximate
12:40AM 20.9290 -76.6112 144° Southeast  Level FlightAware Approximate
12:41AM 20.8305 -76.5336 144° Southeast  Level FlightAware Approximate
12:42AM 20.7317 -76.4564 144° Southeast  Level FlightAware Approximate
12:43AM 20.6325 -76.3799 144° Southeast  Level FlightAware Approximate
12:44AM 20.5333 -76.3035 144° Southeast  Level FlightAware Approximate
12:45AM 20.4340 -76.2273 144° Southeast  Level FlightAware Approximate
12:46AM 20.3347 -76.1511 144° Southeast  Level FlightAware Approximate
12:47AM 20.2354 -76.0750 144° Southeast  Level FlightAware Approximate
12:48AM 20.1360 -75.9990 144° Southeast  Level FlightAware Approximate
12:49AM 20.0366 -75.9231 144° Southeast  Level FlightAware Approximate
12:50AM 19.9373 -75.8473 144° Southeast  Level FlightAware Approximate
12:51AM 19.8379 -75.7715 144° Southeast  Level FlightAware Approximate
12:52AM 19.7384 -75.6958 144° Southeast  Level FlightAware Approximate
12:53AM 19.6390 -75.6202 144° Southeast  Level FlightAware Approximate
12:54AM 19.5395 -75.5447 144° Southeast  Level FlightAware Approximate
12:55AM 19.4399 -75.4693 144° Southeast  Level FlightAware Approximate
12:56AM 19.3404 -75.3940 144° Southeast  Level FlightAware Approximate
12:57AM 19.2408 -75.3188 145° Southeast  Level FlightAware Approximate
12:58AM 19.1412 -75.2437 145° Southeast  Level FlightAware Approximate
12:59AM 19.0415 -75.1686 145° Southeast  Level FlightAware Approximate
01:00AM 18.9418 -75.0937 145° Southeast  Level FlightAware Approximate
01:01AM 18.8421 -75.0188 145° Southeast  Level FlightAware Approximate
01:02AM 18.7424 -74.9441 145° Southeast  Level FlightAware Approximate
01:03AM 18.6426 -74.8694 145° Southeast  Level FlightAware Approximate
01:04AM 18.5430 -74.7945 144° Southeast  Level FlightAware Approximate
01:05AM 18.4434 -74.7197 145° Southeast  Level FlightAware Approximate
01:06AM 18.3437 -74.6449 145° Southeast  Level FlightAware Approximate
01:07AM 18.2441 -74.5702 145° Southeast  Level FlightAware Approximate
01:08AM 18.1444 -74.4956 145° Southeast  Level FlightAware Approximate
01:09AM 18.0447 -74.4212 145° Southeast  Level FlightAware Approximate
01:10AM 17.9449 -74.3468 145° Southeast  Level FlightAware Approximate
01:11AM 17.8451 -74.2725 145° Southeast  Level FlightAware Approximate
01:12AM 17.7452 -74.1983 145° Southeast  Level FlightAware Approximate
01:13AM 17.6453 -74.1242 145° Southeast  Level FlightAware Approximate
01:14AM 17.5455 -74.0502 145° Southeast  Level FlightAware Approximate
01:15AM 17.4455 -73.9762 145° Southeast  Level FlightAware Approximate
01:16AM 17.3456 -73.9024 145° Southeast  Level FlightAware Approximate
01:17AM 17.2456 -73.8286 145° Southeast  Level FlightAware Approximate
01:18AM 17.1456 -73.7549 145° Southeast  Level FlightAware Approximate
01:19AM 17.0456 -73.6812 145° Southeast  Level FlightAware Approximate
01:20AM 16.9455 -73.6077 145° Southeast  Level FlightAware Approximate
01:21AM 16.8454 -73.5342 145° Southeast  Level FlightAware Approximate
01:22AM 16.7453 -73.4608 145° Southeast  Level FlightAware Approximate
01:23AM 16.6452 -73.3875 145° Southeast  Level FlightAware Approximate
01:24AM 16.5450 -73.3143 145° Southeast  Level FlightAware Approximate
01:25AM 16.4448 -73.2412 145° Southeast  Level FlightAware Approximate
01:26AM 16.3445 -73.1681 145° Southeast  Level FlightAware Approximate
01:27AM 16.2443 -73.0951 145° Southeast  Level FlightAware Approximate
01:28AM 16.1440 -73.0222 145° Southeast  Level FlightAware Approximate
01:29AM 16.0437 -72.9494 145° Southeast  Level FlightAware Approximate
01:30AM 15.9433 -72.8766 145° Southeast  Level FlightAware Approximate
01:31AM 15.8430 -72.8040 145° Southeast  Level FlightAware Approximate
01:32AM 15.7426 -72.7314 145° Southeast  Level FlightAware Approximate
01:33AM 15.6422 -72.6588 145° Southeast  Level FlightAware Approximate
01:34AM 15.5417 -72.5863 145° Southeast  Level FlightAware Approximate
01:35AM 15.4413 -72.5139 145° Southeast  Level FlightAware Approximate
01:36AM 15.3408 -72.4416 145° Southeast  Level FlightAware Approximate
01:37AM 15.2403 -72.3694 145° Southeast  Level FlightAware Approximate
01:38AM 15.1398 -72.2972 145° Southeast  Level FlightAware Approximate
01:39AM 15.0392 -72.2251 145° Southeast  Level FlightAware Approximate
01:40AM 14.9387 -72.1530 145° Southeast  Level FlightAware Approximate
01:41AM 14.8381 -72.0810 145° Southeast  Level FlightAware Approximate
01:42AM 14.7374 -72.0091 145° Southeast  Level FlightAware Approximate
01:43AM 14.6368 -71.9372 145° Southeast  Level FlightAware Approximate
01:44AM 14.5361 -71.8655 145° Southeast  Level FlightAware Approximate
01:45AM 14.4355 -71.7937 145° Southeast  Level FlightAware Approximate
01:46AM 14.3348 -71.7221 145° Southeast  Level FlightAware Approximate
01:47AM 14.2340 -71.6505 145° Southeast  Level FlightAware Approximate
01:48AM 14.1336 -71.5785 145° Southeast  Level FlightAware Approximate
01:49AM 14.0331 -71.5066 145° Southeast  Level FlightAware Approximate
01:50AM 13.9326 -71.4348 145° Southeast  Level FlightAware Approximate
01:51AM 13.8321 -71.3630 145° Southeast  Level FlightAware Approximate
01:52AM 13.7316 -71.2913 145° Southeast  Level FlightAware Approximate
01:53AM 13.6310 -71.2196 145° Southeast  Level FlightAware Approximate
01:54AM 13.5305 -71.1480 145° Southeast  Level FlightAware Approximate
01:55AM 13.4299 -71.0764 145° Southeast  Level FlightAware Approximate
01:56AM 13.3293 -71.0050 145° Southeast  Level FlightAware Approximate
01:57AM 13.2286 -70.9335 145° Southeast  Level FlightAware Approximate
01:58AM 13.1280 -70.8622 145° Southeast  Level FlightAware Approximate
01:59AM 13.0273 -70.7909 145° Southeast  Level FlightAware Approximate
02:00AM 12.9266 -70.7196 145° Southeast  Level FlightAware Approximate
02:01AM 12.8259 -70.6484 145° Southeast  Level FlightAware Approximate
02:02AM 12.7252 -70.5773 145° Southeast  Level FlightAware Approximate
02:03AM 12.6244 -70.5062 145° Southeast  Level FlightAware Approximate
02:04AM 12.5237 -70.4352 145° Southeast  Level FlightAware Approximate
02:05AM 12.4228 -70.3643 146° Southeast  Level FlightAware Approximate
02:06AM 12.3218 -70.2938 146° Southeast  Level FlightAware Approximate
02:07AM 12.2207 -70.2233 146° Southeast  Level FlightAware Approximate
02:08AM 12.1196 -70.1529 146° Southeast  Level FlightAware Approximate
02:09AM 12.0185 -70.0825 146° Southeast  Level FlightAware Approximate
02:10AM 11.9174 -70.0122 146° Southeast  Level FlightAware Approximate
02:11AM 11.8162 -69.9419 146° Southeast  Level FlightAware Approximate
02:12AM 11.7151 -69.8717 146° Southeast  Level FlightAware Approximate
02:13AM 11.6139 -69.8015 146° Southeast  Level FlightAware Approximate
02:14AM 11.5127 -69.7314 146° Southeast  Level FlightAware Approximate
02:15AM 11.4115 -69.6613 146° Southeast  Level FlightAware Approximate
02:16AM 11.3103 -69.5913 146° Southeast  Level FlightAware Approximate
02:17AM 11.2091 -69.5213 146° Southeast  Level FlightAware Approximate
02:18AM 11.1078 -69.4514 146° Southeast  Level FlightAware Approximate
02:19AM 11.0065 -69.3815 146° Southeast  Level FlightAware Approximate
02:20AM 10.9051 -69.3118 146° Southeast  Level FlightAware Approximate
02:21AM 10.8038 -69.2421 146° Southeast  Level FlightAware Approximate
02:22AM 10.7024 -69.1725 146° Southeast  Level FlightAware Approximate
02:23AM 10.6010 -69.1030 146° Southeast  Level FlightAware Approximate
02:24AM 10.4995 -69.0334 146° Southeast  Level FlightAware Approximate
02:25AM 10.3981 -68.9639 146° Southeast  Level FlightAware Approximate
02:26AM 10.2966 -68.8945 146° Southeast  Level FlightAware Approximate
02:27AM 10.1952 -68.8251 146° Southeast  Level FlightAware Approximate
02:28AM 10.0937 -68.7557 146° Southeast  Level FlightAware Approximate
02:29AM 9.9922 -68.6864 146° Southeast  Level FlightAware Approximate
02:30AM 9.8907 -68.6172 146° Southeast  Level FlightAware Approximate
02:31AM 9.7892 -68.5479 146° Southeast  Level FlightAware Approximate
02:32AM 9.6876 -68.4788 146° Southeast  Level FlightAware Approximate
02:33AM 9.5861 -68.4096 146° Southeast  Level FlightAware Approximate
02:34AM 9.4845 -68.3405 146° Southeast  Level FlightAware Approximate
02:35AM 9.3829 -68.2715 146° Southeast  Level FlightAware Approximate
02:36AM 9.2813 -68.2024 146° Southeast  Level FlightAware Approximate
02:37AM 9.1797 -68.1335 146° Southeast  Level FlightAware Approximate
02:38AM 9.0781 -68.0645 146° Southeast  Level FlightAware Approximate
02:39AM 8.9765 -67.9956 146° Southeast  Level FlightAware Approximate
02:40AM 8.8748 -67.9268 146° Southeast  Level FlightAware Approximate
02:41AM 8.7732 -67.8579 146° Southeast  Level FlightAware Approximate
02:42AM 8.6715 -67.7892 146° Southeast  Level FlightAware Approximate
02:43AM 8.5698 -67.7204 146° Southeast  Level FlightAware Approximate
02:44AM 8.4681 -67.6517 146° Southeast  Level FlightAware Approximate
02:45AM 8.3664 -67.5830 146° Southeast  Level FlightAware Approximate
02:46AM 8.2647 -67.5144 146° Southeast  Level FlightAware Approximate
02:47AM 8.1630 -67.4458 146° Southeast  Level FlightAware Approximate
02:48AM 8.0612 -67.3772 146° Southeast  Level FlightAware Approximate
02:49AM 7.9595 -67.3087 146° Southeast  Level FlightAware Approximate
02:50AM 7.8577 -67.2402 146° Southeast  Level FlightAware Approximate
02:51AM 7.7560 -67.1717 146° Southeast  Level FlightAware Approximate
02:52AM 7.6542 -67.1033 146° Southeast  Level FlightAware Approximate
02:53AM 7.5524 -67.0349 146° Southeast  Level FlightAware Approximate
02:54AM 7.4506 -66.9665 146° Southeast  Level FlightAware Approximate
02:55AM 7.3487 -66.8982 146° Southeast  Level FlightAware Approximate
02:56AM 7.2469 -66.8299 146° Southeast  Level FlightAware Approximate
02:57AM 7.1451 -66.7616 146° Southeast  Level FlightAware Approximate
02:58AM 7.0432 -66.6934 146° Southeast  Level FlightAware Approximate
02:59AM 6.9414 -66.6252 146° Southeast  Level FlightAware Approximate
03:00AM 6.8395 -66.5570 146° Southeast  Level FlightAware Approximate
03:01AM 6.7376 -66.4889 146° Southeast  Level FlightAware Approximate
03:02AM 6.6357 -66.4207 146° Southeast  Level FlightAware Approximate
03:03AM 6.5338 -66.3526 146° Southeast  Level FlightAware Approximate
03:04AM 6.4319 -66.2846 146° Southeast  Level FlightAware Approximate
03:05AM 6.3300 -66.2165 146° Southeast  Level FlightAware Approximate
03:06AM 6.2281 -66.1485 146° Southeast  Level FlightAware Approximate
03:07AM 6.1262 -66.0805 146° Southeast  Level FlightAware Approximate
03:08AM 6.0242 -66.0126 146° Southeast  Level FlightAware Approximate
03:09AM 5.9223 -65.9446 146° Southeast  Level FlightAware Approximate
03:10AM 5.8203 -65.8767 146° Southeast  Level FlightAware Approximate
03:11AM 5.7183 -65.8088 146° Southeast  Level FlightAware Approximate
03:12AM 5.6164 -65.7410 146° Southeast  Level FlightAware Approximate
03:13AM 5.5144 -65.6731 146° Southeast  Level FlightAware Approximate
03:14AM 5.4124 -65.6053 146° Southeast  Level FlightAware Approximate
03:15AM 5.3104 -65.5375 147° Southeast  Level FlightAware Approximate
03:16AM 5.2084 -65.4697 147° Southeast  Level FlightAware Approximate
03:17AM 5.1064 -65.4020 147° Southeast  Level FlightAware Approximate
03:18AM 5.0044 -65.3343 147° Southeast  Level FlightAware Approximate
03:19AM 4.9023 -65.2665 147° Southeast  Level FlightAware Approximate
03:20AM 4.8003 -65.1989 147° Southeast  Level FlightAware Approximate
03:21AM 4.6983 -65.1312 147° Southeast  Level FlightAware Approximate
03:22AM 4.5962 -65.0635 147° Southeast  Level FlightAware Approximate
03:23AM 4.4942 -64.9959 147° Southeast  Level FlightAware Approximate
03:24AM 4.3921 -64.9283 147° Southeast  Level FlightAware Approximate
03:25AM 4.2901 -64.8607 147° Southeast  Level FlightAware Approximate
03:26AM 4.1880 -64.7931 147° Southeast  Level FlightAware Approximate
03:27AM 4.0859 -64.7256 147° Southeast  Level FlightAware Approximate
03:28AM 3.9838 -64.6581 147° Southeast  Level FlightAware Approximate
03:29AM 3.8818 -64.5905 147° Southeast  Level FlightAware Approximate
03:30AM 3.7797 -64.5230 147° Southeast  Level FlightAware Approximate
03:31AM 3.6776 -64.4555 147° Southeast  Level FlightAware Approximate
03:32AM 3.5755 -64.3881 147° Southeast  Level FlightAware Approximate
03:33AM 3.4734 -64.3206 147° Southeast  Level FlightAware Approximate
03:34AM 3.3712 -64.2532 147° Southeast  Level FlightAware Approximate
03:35AM 3.2691 -64.1857 147° Southeast  Level FlightAware Approximate
03:36AM 3.1670 -64.1183 147° Southeast  Level FlightAware Approximate
03:37AM 3.0649 -64.0509 147° Southeast  Level FlightAware Approximate
03:38AM 2.9627 -63.9835 147° Southeast  Level FlightAware Approximate
03:39AM 2.8606 -63.9162 147° Southeast  Level FlightAware Approximate
03:40AM 2.7585 -63.8488 147° Southeast  Level FlightAware Approximate
03:41AM 2.6563 -63.7815 147° Southeast  Level FlightAware Approximate
03:42AM 2.5542 -63.7141 147° Southeast  Level FlightAware Approximate
03:43AM 2.4520 -63.6468 147° Southeast  Level FlightAware Approximate
03:44AM 2.3499 -63.5795 147° Southeast  Level FlightAware Approximate
03:45AM 2.2477 -63.5122 147° Southeast  Level FlightAware Approximate
03:46AM 2.1456 -63.4449 147° Southeast  Level FlightAware Approximate
03:47AM 2.0434 -63.3776 147° Southeast  Level FlightAware Approximate
03:48AM 1.9412 -63.3103 147° Southeast  Level FlightAware Approximate
03:49AM 1.8391 -63.2430 147° Southeast  Level FlightAware Approximate
03:50AM 1.7369 -63.1758 147° Southeast  Level FlightAware Approximate
03:51AM 1.6347 -63.1085 147° Southeast  Level FlightAware Approximate
03:52AM 1.5326 -63.0412 147° Southeast  Level FlightAware Approximate
03:53AM 1.4304 -62.9740 147° Southeast  Level FlightAware Approximate
03:54AM 1.3282 -62.9067 147° Southeast  Level FlightAware Approximate
03:55AM 1.2260 -62.8395 147° Southeast  Level FlightAware Approximate
03:56AM 1.1238 -62.7723 147° Southeast  Level FlightAware Approximate
03:57AM 1.0217 -62.7051 147° Southeast  Level FlightAware Approximate
03:58AM 0.9195 -62.6379 147° Southeast  Level FlightAware Approximate
03:59AM 0.8173 -62.5706 147° Southeast  Level FlightAware Approximate
04:00AM 0.7151 -62.5034 147° Southeast  Level FlightAware Approximate
04:01AM 0.6129 -62.4362 147° Southeast  Level FlightAware Approximate
04:02AM 0.5107 -62.3690 147° Southeast  Level FlightAware Approximate
04:03AM 0.4085 -62.3018 147° Southeast  Level FlightAware Approximate
04:04AM 0.3063 -62.2346 147° Southeast  Level FlightAware Approximate
04:05AM 0.2042 -62.1674 147° Southeast  Level FlightAware Approximate
04:06AM 0.1020 -62.1002 147° Southeast  Level FlightAware Approximate
04:07AM -0.0002 -62.0330 147° Southeast  Level FlightAware Approximate
04:08AM -0.1024 -61.9658 147° Southeast  Level FlightAware Approximate
04:09AM -0.2046 -61.8986 147° Southeast  Level FlightAware Approximate
04:10AM -0.3068 -61.8314 147° Southeast  Level FlightAware Approximate
04:11AM -0.4090 -61.7642 147° Southeast  Level FlightAware Approximate
04:12AM -0.5112 -61.6970 147° Southeast  Level FlightAware Approximate
04:13AM -0.6134 -61.6298 147° Southeast  Level FlightAware Approximate
04:14AM -0.7156 -61.5626 147° Southeast  Level FlightAware Approximate
04:15AM -0.8177 -61.4953 147° Southeast  Level FlightAware Approximate
04:16AM -0.9199 -61.4281 147° Southeast  Level FlightAware Approximate
04:17AM -1.0221 -61.3609 147° Southeast  Level FlightAware Approximate
04:18AM -1.1243 -61.2937 147° Southeast  Level FlightAware Approximate
04:19AM -1.2265 -61.2265 147° Southeast  Level FlightAware Approximate
04:20AM -1.3296 -61.1607 148° Southeast  Level FlightAware Approximate
04:21AM -1.4319 -61.0939 144° Southeast  Level FlightAware Approximate
04:22AM -1.5329 -61.0252 153° Southeast  Level FlightAware Approximate
04:23AM -1.6354 -60.9595 142° Southeast  Level FlightAware Approximate
04:24AM -1.7320 -60.8844 142° Southeast  Level FlightAware Approximate
04:25AM -1.8356 -60.8194 148° Southeast  Level FlightAware Approximate
04:26AM -1.9411 -60.7575 150° Southeast  Level FlightAware Approximate
04:27AM -2.0433 -60.6905 144° Southeast  Level FlightAware Approximate
04:28AM -2.1438 -60.6208 146° Southeast  Level FlightAware Approximate
04:29AM -2.2456 -60.5530 146° Southeast  Level FlightAware Approximate
04:30AM -2.3473 -60.4851 146° Southeast  Level FlightAware Approximate
04:31AM -2.4492 -60.4172 146° Southeast  Level FlightAware Approximate
04:32AM -2.5517 -60.3505 148° Southeast  Level FlightAware Approximate
04:33AM -2.6549 -60.2848 148° Southeast  Level FlightAware Approximate
04:34AM -2.7594 -60.2215 146° Southeast  Level FlightAware Approximate
04:35AM -2.8615 -60.1552 135° Southeast  Level FlightAware Approximate
04:36AM -2.9573 -60.0797 153° Southeast  Level FlightAware Approximate
04:37AM -3.0167 -60.0500 153° Southeast  Level FlightAware Approximate
04:38AM -3.0386 -60.0497 153° Southeast  Level Estimated
04:39AM -3.0386 -60.0497 153° Southeast  Level Estimated
04:40AM -3.0386 -60.0497 153° Southeast  Level Estimated
04:41AM -3.0386 -60.0497 153° Southeast  Level Estimated
04:42AM -3.0386 -60.0497 153° Southeast  Level Estimated
04:43AM -3.0386 -60.0497 153° Southeast  Level Estimated
04:44AM -3.0386 -60.0497 153° Southeast  Level Estimated
04:45AM -3.0386 -60.0497 153° Southeast  Level Estimated
04:46AM -3.0386 -60.0497 153° Southeast  Level Estimated
04:47AM -3.0386 -60.0497 153° Southeast  Level Estimated
04:48AM -3.0386 -60.0497 153° Southeast  Level Estimated
04:49AM -3.0386 -60.0497 153° Southeast  Level Estimated
04:50AM -3.0386 -60.0497 153° Southeast  Level Estimated